Whale Point, California Weather observations

Data are for observation ending at time listed.
 Day   Time    Ave.   Ave.  Ave.  Vector   Max.   Stn.    Total    Solar   Ave.  
  of    of     Air    Rel.  Wind   Wind    Wind   Baro.  Precip.   Rad.    Soil  
Year   Day     Temp.  Hum.  Speed  Dir.    Gust   Pres.                    Temp. 
2016   (PST)    F      %     mph   deg.    mph     mb.     in.     W/m2     F   
------------------------------------------------------------------------------
 151    0:00   50.3    94    0.8    54      3.7   995.3    0.00       0    70.5
 151    0:10   50.4    94    1.7   192      4.7   995.3    0.00       0    70.4
 151    0:20   50.4    94    0.4   199      2.6   995.3    0.00       0    70.3
 151    0:30   50.4    95    0.2     6      0.9   994.9    0.00       0    70.2
 151    0:40   50.2    95    0.3    37      1.5   995.3    0.00       0    70.2
 151    0:50   50.2    95    1.6    40      3.9   995.3    0.00       0    70.1
 151    1:00   49.9    95    2.3    36      3.9   995.3    0.00       0    70.0
 151    1:10   49.9    95    1.2    72      3.9   995.3    0.00       0    70.0
 151    1:20   50.0    95    0.2    37      1.6   994.9    0.00       0    69.9
 151    1:30   50.0    95    0.4    61      1.8   994.9    0.00       0    69.8
 151    1:40   50.0    95    0.8    57      2.3   994.9    0.00       0    69.7
 151    1:50   49.9    95    0.3    38      1.7   994.9    0.00       0    69.7
 151    2:00   49.8    95    0.2    73      1.1   994.6    0.00       0    69.6
 151    2:10   49.8    95    0.8   126      2.9   994.6    0.00       0    69.6
 151    2:20   49.9    95    0.3    48      1.2   994.6    0.00       0    69.5
 151    2:30   49.8    95    0.5    40      1.8   994.6    0.00       0    69.4
 151    2:40   49.8    95    0.0    59      0.7   994.6    0.00       0    69.3
 151    2:50   49.8    95    0.9    37      2.8   994.6    0.00       0    69.3
 151    3:00   49.8    95    0.4   254      2.3   994.6    0.00       0    69.2
 151    3:10   49.7    95    0.7   247      2.9   994.6    0.00       0    69.2
 151    3:20   49.5    95    0.2    64      1.8   994.6    0.00       0    69.1
 151    3:30   49.4    95    0.4   350      1.7   994.6    0.00       0    69.0
 151    3:40   49.4    95    1.3   313      2.6   994.2    0.00       0    69.0
 151    3:50   49.3    95    0.8   317      2.6   994.2    0.00       0    68.9
 151    4:00   49.2    95    1.1     2      3.0   994.2    0.00       0    68.8
 151    4:10   49.0    95    1.8   351      3.4   994.2    0.00       0    68.8
 151    4:20   48.9    95    1.3   358      3.6   994.2    0.00       0    68.7
 151    4:30   48.9    95    2.0     3      4.4   994.2    0.00       0    68.7
 151    4:40   48.7    95    2.2     4      5.1   994.2    0.00       0    68.6
 151    4:50   48.7    95    1.3    12      3.0   994.2    0.00       1    68.6
 151    5:00   48.6    95    2.9    20      4.2   994.6    0.00       2    68.5
 151    5:10   48.5    95    2.4    19      4.0   994.6    0.00       4    68.4
 151    5:20   48.6    95    2.3     2      3.7   994.6    0.00       5    68.4
 151    5:30   48.6    95    2.4    16      3.7   994.6    0.00       7    68.3
 151    5:40   48.6    95    1.2     6      2.6   994.6    0.00      15    68.3
 151    5:50   48.7    95    1.2     4      2.9   994.9    0.00      31    68.2
 151    6:00   48.7    96    1.6   352      3.2   994.9    0.00      41    68.1
 151    6:10   48.7    96    1.7     3      3.1   994.9    0.00      55    68.1
 151    6:20   48.8    96    1.2   345      2.3   994.9    0.00      64    68.0
 151    6:30   48.9    96    1.7     2      3.1   994.9    0.00      77    68.0
 151    6:40   49.2    96    0.3   348      2.0   994.9    0.00     109    67.9
 151    6:50   49.3    96    0.5   347      1.6   994.9    0.00     134    67.8
 151    7:00   49.5    96    2.0   243      3.7   995.3    0.00     132    67.8
 151    7:10   49.8    96    1.6   234      3.6   995.3    0.00     131    67.7
 151    7:20   49.6    96    1.7   234      3.2   994.9    0.00     149    67.7
 151    7:30   49.7    96    2.5   226      3.9   995.3    0.00     146    67.7
 151    7:40   49.8    96    2.1   231      3.4   995.3    0.00     160    67.6
 151    7:50   49.9    96    2.1   234      4.7   995.3    0.00     192    67.6
 151    8:00   49.8    96    3.0   227      5.3   995.3    0.00     208    67.6
 151    8:10   49.9    95    3.3   227      5.1   995.3    0.00     236    67.5
 151    8:20   50.0    95    2.7   237      4.7   995.3    0.00     258    67.5
 151    8:30   50.1    95    3.0   234      4.8   995.3    0.00     277    67.5
 151    8:40   50.4    95    3.2   220      5.0   995.3    0.00     274    67.5
 151    8:50   50.5    95    3.6   224      5.0   995.3    0.00     314    67.4
 151    9:00   50.5    95    3.6   220      5.8   995.6    0.00     315    67.4
 151    9:10   50.5    95    3.5   221      5.3   995.6    0.00     351    67.4
 151    9:20   50.9    95    3.6   220      5.2   995.6    0.00     354    67.4
 151    9:30   50.9    95    3.9   219      6.1   995.6    0.00     352    67.4
 151    9:40   51.3    95    3.9   215      7.1   995.6    0.00     381    67.4
 151    9:50   51.2    94    4.2   217      7.4   995.6    0.00     410    67.5
 151   10:00   51.5    94    3.9   216      5.7   995.9    0.00     466    67.5
 151   10:10   51.3    94    4.1   222      7.1   995.9    0.00     492    67.5
 151   10:20   51.5    93    3.9   224      5.7   995.6    0.00     519    67.6
 151   10:30   51.8    93    4.2   223      6.5   995.6    0.00     572    67.6
 151   10:40   52.2    92    4.5   219      6.6   995.6    0.00     590    67.6
 151   10:50   52.2    91    4.4   224      6.4   995.9    0.00     557    67.7
 151   11:00   52.4    91    4.1   224      5.8   995.6    0.00     567    67.7
 151   11:10   52.5    90    3.7   225      6.3   995.6    0.00     612    67.8
 151   11:20   52.8    90    4.0   228      5.8   995.6    0.00     677    67.9
 151   11:30   53.2    90    4.3   225      7.0   995.6    0.00     705    67.9
 151   11:40   53.6    89    4.4   222      6.3   995.6    0.00     694    68.1
 151   11:50   53.7    88    4.6   226      6.9   995.6    0.00     700    68.1
 151   12:00   53.8    88    5.5   225      7.5   995.6    0.00     730    68.3
 151   12:10   53.9    87    4.9   222      7.2   995.6    0.00     816    68.4
 151   12:20   54.1    87    4.9   222      7.7   995.6    0.00     794    68.5
 151   12:30   54.8    85    5.2   223      8.3   995.6    0.00     856    68.6
 151   12:40   55.5    83    5.7   225      8.3   995.6    0.00    1080    68.7
 151   12:50   55.8    82    5.5   225      9.1   995.6    0.00     989    68.8
 151   13:00   55.7    82    5.8   223      8.3   995.3    0.00     933    69.0
 151   13:10   56.0    81    5.6   217      8.4   995.3    0.00     879    69.1
 151   13:20   55.7    82    5.8   222      9.1   995.3    0.00     984    69.3
 151   13:30   56.4    81    5.4   231      8.6   994.9    0.00    1019    69.5
 151   13:40   56.4    80    5.8   229     10.9   994.9    0.00    1061    69.6
 151   13:50   56.8    79    6.4   218     11.5   994.9    0.00    1015    69.8
 151   14:00   56.6    80    6.4   223     10.6   994.9    0.00    1021    70.0
 151   14:10   57.1    79    5.9   226      9.6   994.9    0.00     994    70.2
 151   14:20   57.0    78    5.9   226      8.7   994.6    0.00     944    70.4
 151   14:30   56.3    80    6.0   226      9.5   994.6    0.00     901    70.7
 151   14:40   56.3    80    6.0   226      8.9   994.6    0.00     877    70.9
 151   14:50   57.2    78    5.5   227      8.3   994.6    0.00     853    71.1
 151   15:00   57.7    77    5.5   226      8.7   994.2    0.00     825    71.4
 151   15:10   57.8    77    5.8   234      8.5   994.2    0.00     798    71.6
 151   15:20   58.0    76    5.0   241      8.9   994.2    0.00     771    71.9
 151   15:30   58.0    76    5.6   238      9.1   994.2    0.00     739    72.1
 151   15:40   57.7    77    5.3   240      8.8   994.2    0.00     711    72.4
 151   15:50   57.5    78    5.4   231      9.5   993.9    0.00     674    72.7
 151   16:00   57.3    78    5.5   231      7.9   993.9    0.00     634    73.0
 151   16:10   57.8    77    4.8   234      8.3   993.9    0.00     260    73.2
 151   16:20   56.7    80    5.7   237      9.8   993.6    0.00     293    73.4
 151   16:30   56.7    80    5.2   232     10.8   993.6    0.00     519    73.7
 151   16:40   55.9    82    5.2   232     10.0   993.6    0.00     408    73.9
 151   16:50   56.2    81    3.7   229      9.1   993.6    0.00     347    74.1
 151   17:00   56.1    82    4.1   212     10.2   993.2    0.00     171    74.4
 151   17:10   56.8    80    4.2   221      8.5   993.2    0.00     107    74.6
 151   17:20   56.7    80    4.8   228      9.8   993.2    0.00     201    74.8
 151   17:30   56.2    81    4.1   226      8.8   993.2    0.00     345    74.9
 151   17:40   56.2    82    3.7   246      7.2   993.2    0.00     295    75.1
 151   17:50   56.0    82    2.8   251      6.0   993.2    0.00     258    75.3
 151   18:00   55.8    82    3.4   228      6.7   993.2    0.00     198    75.4
 151   18:10   55.1    84    2.2   235      4.5   993.2    0.00      94    75.6
 151   18:20   54.1    86    1.9   247      6.6   993.2    0.00      85    75.7
 151   18:30   53.9    87    1.7   258      4.9   992.9    0.00      72    75.9
 151   18:40   53.4    87    1.8   232      4.5   992.9    0.00      60    75.9
 151   18:50   53.0    88    2.2   224      5.1   992.9    0.00      36    76.0
 151   19:00   52.8    89    1.8   249      5.3   992.9    0.00      22    76.1
 151   19:10   52.5    90    0.3   347      1.7   992.9    0.00       9    76.1
 151   19:20   52.4    90    0.5   287      2.4   992.9    0.00       4    76.1
 151   19:30   52.2    90    1.0    11      2.1   992.9    0.00       2    76.2
 151   19:40   52.0    91    0.8    35      2.1   992.6    0.00       0    76.2
 151   19:50   51.9    91    1.6   177      5.0   992.6    0.00       0    76.1
 151   20:00   51.7    92    1.5   187      5.2   992.6    0.00       0    76.1
 151   20:10   51.6    92    0.8   234      2.6   992.6    0.00       0    76.0
 151   20:20   51.5    92    0.5    26      1.7   992.6    0.00       0    76.0
 151   20:30   51.5    93    1.5   244      3.8   992.6    0.00       0    75.9
 151   20:40   51.4    93    1.3   227      4.7   992.9    0.00       0    75.8
 151   20:50   51.3    93    1.6   242      3.4   992.9    0.00       0    75.7
 151   21:00   51.2    93    1.8   230      4.2   992.9    0.00       0    75.6
 151   21:10   51.1    94    0.4   300      2.0   992.9    0.00       0    75.5
 151   21:20   51.1    94    0.3   307      1.4   992.9    0.00       0    75.5
 151   21:30   51.0    94    0.2   272      1.3   992.9    0.00       0    75.4

Return to Whale Point graphs page.


Western Regional Climate Center,wrcc@dri.edu